createdAt,value
2019-06-27T00:00:27.468Z,77972.09
2019-06-27T00:02:56.950Z,77963.77
2019-06-27T00:05:26.621Z,77949.08
2019-06-27T00:07:56.079Z,77945.13
2019-06-27T00:10:25.564Z,77949.30
2019-06-27T00:12:55.050Z,77955.82
2019-06-27T00:15:24.557Z,77958.41
2019-06-27T00:17:53.996Z,77953.73
2019-06-27T00:20:23.483Z,77951.05
2019-06-27T00:22:53.060Z,77950.01
2019-06-27T00:25:22.600Z,77954.98
2019-06-27T00:27:52.079Z,77954.88
2019-06-27T00:30:21.741Z,77958.67
2019-06-27T00:32:51.260Z,77957.15
2019-06-27T00:35:20.739Z,77957.58
2019-06-27T00:37:50.298Z,77950.24
2019-06-27T00:40:19.818Z,77947.80
2019-06-27T00:42:49.310Z,77945.05
2019-06-27T00:45:18.715Z,77937.55
2019-06-27T00:47:48.238Z,77931.91
2019-06-27T00:50:18.125Z,77930.39
2019-06-27T00:52:47.535Z,77923.75
2019-06-27T00:55:17.041Z,77914.78
2019-06-27T00:57:46.559Z,77918.91
2019-06-27T01:00:16.734Z,77915.80
2019-06-27T01:02:46.179Z,77912.30
2019-06-27T01:05:15.691Z,77915.47
2019-06-27T01:07:45.235Z,77917.80
2019-06-27T01:10:14.754Z,77912.63
2019-06-27T01:12:44.248Z,77911.11
2019-06-27T01:15:13.864Z,77908.59
2019-06-27T01:17:43.364Z,77908.97
2019-06-27T01:20:12.852Z,77904.30
2019-06-27T01:22:42.329Z,77897.11
2019-06-27T01:25:11.842Z,77889.71
2019-06-27T01:27:41.662Z,77879.14
2019-06-27T01:30:11.135Z,77879.52
2019-06-27T01:32:40.578Z,77877.27
2019-06-27T01:35:10.175Z,77877.48
2019-06-27T01:37:39.663Z,77876.77
2019-06-27T01:40:09.068Z,77878.47
2019-06-27T01:42:38.584Z,77883.34
2019-06-27T01:45:25.108Z,77877.27
2019-06-27T01:47:54.538Z,77872.95
2019-06-27T01:50:24.020Z,77876.50
2019-06-27T01:52:53.515Z,77870.98
2019-06-27T01:55:23.019Z,77870.64
2019-06-27T01:57:52.505Z,77870.64
2019-06-27T02:00:22.021Z,77867.78
2019-06-27T02:02:51.600Z,77872.45
2019-06-27T02:05:21.082Z,77871.78
2019-06-27T02:07:50.573Z,77867.38
2019-06-27T02:10:21.091Z,77866.08
2019-06-27T02:12:50.570Z,77865.91
2019-06-27T02:15:22.231Z,77863.39
2019-06-27T02:17:51.271Z,77861.30
2019-06-27T02:20:20.682Z,77851.61
2019-06-27T02:22:50.166Z,77851.66
2019-06-27T02:25:19.626Z,77848.42
2019-06-27T02:28:02.694Z,77840.51
2019-06-27T02:30:33.599Z,77829.29
2019-06-27T02:33:03.106Z,77834.34
2019-06-27T02:35:32.524Z,77831.86
2019-06-27T02:38:02.027Z,77827.35
2019-06-27T02:40:31.510Z,77821.66
2019-06-27T02:43:01.003Z,77817.42
2019-06-27T02:45:30.515Z,77823.63
2019-06-27T02:47:59.929Z,77817.88
2019-06-27T02:50:29.335Z,77815.22
2019-06-27T02:52:58.943Z,77814.05
2019-06-27T02:55:28.421Z,77807.89
2019-06-27T02:57:57.895Z,77803.41
2019-06-27T03:00:27.265Z,77797.22
2019-06-27T03:02:56.768Z,77798.45
2019-06-27T03:05:26.261Z,77800.91
2019-06-27T03:07:55.714Z,77799.31
2019-06-27T03:10:25.182Z,77800.97
2019-06-27T03:12:54.683Z,77803.31
2019-06-27T03:15:24.137Z,77806.94
2019-06-27T03:17:53.548Z,77804.78
2019-06-27T03:20:23.121Z,77802.41
2019-06-27T03:22:52.705Z,77805.16
2019-06-27T03:25:22.179Z,77802.16
2019-06-27T03:27:51.665Z,77800.70
2019-06-27T03:30:21.181Z,77799.97
2019-06-27T03:32:50.669Z,77800.42
2019-06-27T03:35:20.068Z,77795.34
2019-06-27T03:37:49.525Z,77800.20
2019-06-27T03:40:19.006Z,77807.44
2019-06-27T03:42:48.408Z,77811.80
2019-06-27T03:45:18.133Z,77816.05
2019-06-27T03:47:47.627Z,77819.28
2019-06-27T03:50:17.497Z,77823.24
2019-06-27T03:52:47.013Z,77825.00
2019-06-27T03:55:16.711Z,77826.62
2019-06-27T03:57:46.187Z,77826.19
2019-06-27T04:00:23.065Z,77823.81
2019-06-27T04:02:52.478Z,77822.09
2019-06-27T04:05:21.973Z,77826.28
2019-06-27T04:07:51.615Z,77835.88
2019-06-27T04:10:21.111Z,77844.19
2019-06-27T04:12:50.522Z,77856.96
2019-06-27T04:15:20.030Z,77860.12
2019-06-27T04:17:49.517Z,77864.98
2019-06-27T04:20:19.011Z,77862.63
2019-06-27T04:22:48.582Z,77863.08
2019-06-27T04:25:18.066Z,77866.12
2019-06-27T04:27:47.557Z,77873.11
2019-06-27T04:30:17.270Z,77873.44
2019-06-27T04:32:46.824Z,77875.77
2019-06-27T04:35:16.247Z,77884.04
2019-06-27T04:37:45.754Z,77889.66
2019-06-27T04:40:15.249Z,77894.91
2019-06-27T04:42:44.662Z,77904.25
2019-06-27T04:45:14.172Z,77915.87
2019-06-27T04:47:43.658Z,77925.07
2019-06-27T04:50:13.056Z,77935.45
2019-06-27T04:52:42.488Z,77940.16
2019-06-27T04:55:11.999Z,77946.20
2019-06-27T04:57:41.482Z,77952.18
2019-06-27T05:00:10.964Z,77959.14
2019-06-27T05:02:40.479Z,77966.58
2019-06-27T05:05:09.955Z,77971.61
2019-06-27T05:07:39.443Z,77978.55
2019-06-27T05:10:08.958Z,77988.70
2019-06-27T05:12:38.443Z,77996.27
2019-06-27T05:15:08.423Z,78006.14
2019-06-27T05:17:37.989Z,78013.88
2019-06-27T05:20:07.485Z,78023.84
2019-06-27T05:22:36.918Z,78036.39
2019-06-27T05:25:06.528Z,78042.23
2019-06-27T05:27:36.031Z,78053.81
2019-06-27T05:30:09.829Z,78058.55
2019-06-27T05:32:37.885Z,78065.59
2019-06-27T05:35:07.373Z,78070.23
2019-06-27T05:37:36.876Z,78074.84
2019-06-27T05:40:09.369Z,78079.59
2019-06-27T05:42:38.879Z,78083.67
2019-06-27T05:45:08.494Z,78090.17
2019-06-27T05:47:38.213Z,78102.78
2019-06-27T05:50:10.984Z,78114.24
2019-06-27T05:52:40.586Z,78118.99
2019-06-27T05:55:10.199Z,78130.98
2019-06-27T05:57:39.623Z,78139.03
2019-06-27T06:00:26.229Z,78145.66
2019-06-27T06:02:40.211Z,78155.70
2019-06-27T06:05:09.721Z,78161.38
2019-06-27T06:07:39.223Z,78167.41
2019-06-27T06:10:08.693Z,78173.81
2019-06-27T06:12:38.180Z,78178.45
2019-06-27T06:15:07.991Z,78182.05
2019-06-27T06:17:37.902Z,78183.41
2019-06-27T06:20:08.422Z,78188.83
2019-06-27T06:22:37.935Z,78200.17
2019-06-27T06:25:07.419Z,78212.58
2019-06-27T06:27:36.915Z,78227.47
2019-06-27T06:30:07.154Z,78237.56
2019-06-27T06:32:36.824Z,78240.72
2019-06-27T06:35:09.377Z,78246.47
2019-06-27T06:37:38.808Z,78249.63
2019-06-27T06:40:08.279Z,78253.27
2019-06-27T06:42:37.813Z,78261.53
2019-06-27T06:45:07.865Z,78269.11
2019-06-27T06:47:37.365Z,78282.13
2019-06-27T06:50:06.945Z,78285.07
2019-06-27T06:52:36.517Z,78285.07
2019-06-27T06:55:07.293Z,78292.20
2019-06-27T06:57:36.851Z,78303.56
2019-06-27T07:00:06.451Z,78315.81
2019-06-27T07:02:35.997Z,78332.27
2019-06-27T07:05:06.474Z,78342.39
2019-06-27T07:07:36.034Z,78349.45
2019-06-27T07:10:08.375Z,78360.00
2019-06-27T07:12:37.791Z,78367.29
2019-06-27T07:15:08.404Z,78380.65
2019-06-27T07:17:37.838Z,78391.70
2019-06-27T07:20:07.311Z,78399.71
2019-06-27T07:22:36.826Z,78406.98
2019-06-27T07:25:07.298Z,78422.30
2019-06-27T07:27:36.728Z,78437.98
2019-06-27T07:30:06.667Z,78441.74
2019-06-27T07:32:36.398Z,78440.03
2019-06-27T07:35:07.827Z,78448.42
2019-06-27T07:37:37.470Z,78452.25
2019-06-27T07:40:08.758Z,78471.97
2019-06-27T07:42:38.521Z,78487.20
2019-06-27T07:45:08.558Z,78491.91
2019-06-27T07:47:38.168Z,78498.77
2019-06-27T07:50:10.424Z,78499.95
2019-06-27T07:52:39.940Z,78512.80
2019-06-27T07:55:09.463Z,78523.31
2019-06-27T07:57:38.944Z,78543.23
2019-06-27T08:00:10.208Z,78554.39
2019-06-27T08:02:39.717Z,78570.09
2019-06-27T08:05:09.304Z,78582.34
2019-06-27T08:07:38.986Z,78594.63
2019-06-27T08:10:08.662Z,78610.11
2019-06-27T08:12:41.220Z,78629.50
2019-06-27T08:15:11.186Z,78642.80
2019-06-27T08:17:40.583Z,78656.52
2019-06-27T08:20:10.067Z,78670.55
2019-06-27T08:22:39.497Z,78682.23
2019-06-27T08:25:09.384Z,78694.82
2019-06-27T08:27:38.891Z,78700.13
2019-06-27T08:30:09.835Z,78701.17
2019-06-27T08:32:39.342Z,78729.71
2019-06-27T08:35:08.834Z,78760.55
2019-06-27T08:37:38.267Z,78773.97
2019-06-27T08:40:08.081Z,78789.77
2019-06-27T08:42:37.707Z,78807.68
2019-06-27T08:45:07.723Z,78807.97
2019-06-27T08:47:37.201Z,78812.32
2019-06-27T08:50:08.882Z,78824.75
2019-06-27T08:52:38.349Z,78847.45
2019-06-27T08:55:07.825Z,78876.07
2019-06-27T08:57:37.241Z,78903.22
2019-06-27T09:00:08.208Z,78924.73
2019-06-27T09:02:37.627Z,78948.50
2019-06-27T09:05:09.886Z,78972.92
2019-06-27T09:07:39.413Z,79000.76
2019-06-27T09:10:08.891Z,79027.38
2019-06-27T09:12:38.395Z,79049.83
2019-06-27T09:15:07.887Z,79069.28
2019-06-27T09:17:37.298Z,79084.61
2019-06-27T09:20:08.477Z,79107.23
2019-06-27T09:22:38.061Z,79122.39
2019-06-27T09:25:09.167Z,79119.04
2019-06-27T09:27:38.575Z,79129.93
2019-06-27T09:30:10.262Z,79155.06
2019-06-27T09:32:39.759Z,79179.63
2019-06-27T09:35:09.378Z,79213.74
2019-06-27T09:37:38.803Z,79245.42
2019-06-27T09:40:10.177Z,79264.66
2019-06-27T09:42:39.772Z,79287.94
2019-06-27T09:45:09.209Z,79322.13
2019-06-27T09:47:38.696Z,79347.16
2019-06-27T09:50:08.175Z,79373.72
2019-06-27T09:52:37.695Z,79399.06
2019-06-27T09:55:07.458Z,79418.65
2019-06-27T09:57:36.866Z,79420.40
2019-06-27T10:00:10.497Z,79429.72
2019-06-27T10:02:42.214Z,79450.38
2019-06-27T10:05:11.315Z,79479.88
2019-06-27T10:07:40.817Z,79492.86
2019-06-27T10:10:10.303Z,79523.27
2019-06-27T10:12:42.977Z,79537.87
2019-06-27T10:15:11.017Z,79559.55
2019-06-27T10:17:40.437Z,79600.73
2019-06-27T10:20:09.918Z,79612.23
2019-06-27T10:22:39.341Z,79645.67
2019-06-27T10:25:09.442Z,79678.89
2019-06-27T10:27:38.926Z,79721.20
2019-06-27T10:30:08.425Z,79727.66
2019-06-27T10:32:37.932Z,79710.48
2019-06-27T10:35:08.110Z,79697.88
2019-06-27T10:37:37.737Z,79701.84
2019-06-27T10:40:10.041Z,79715.20
2019-06-27T10:42:39.538Z,79763.78
2019-06-27T10:45:08.974Z,79810.70
2019-06-27T10:47:38.819Z,79849.98
2019-06-27T10:50:08.514Z,79852.90
2019-06-27T10:52:38.086Z,79867.28
2019-06-27T10:55:08.557Z,79895.78
2019-06-27T10:57:38.042Z,79909.25
2019-06-27T11:00:07.957Z,79905.71
2019-06-27T11:02:37.362Z,79890.11
2019-06-27T11:05:08.178Z,79884.72
2019-06-27T11:07:40.811Z,79865.83
2019-06-27T11:10:08.908Z,79875.34
2019-06-27T11:12:38.357Z,79835.72
2019-06-27T11:15:09.420Z,79858.17
2019-06-27T11:17:38.910Z,79907.30
2019-06-27T11:20:08.399Z,79958.67
2019-06-27T11:22:57.246Z,80006.93
2019-06-27T11:25:26.774Z,80020.09
2019-06-27T11:27:56.453Z,80018.51
2019-06-27T11:30:25.985Z,80007.22
2019-06-27T11:32:55.467Z,80027.13
2019-06-27T11:35:24.961Z,80040.78
2019-06-27T11:37:54.466Z,80082.06
2019-06-27T11:40:23.971Z,80148.80
2019-06-27T11:42:53.738Z,80197.00
2019-06-27T11:45:23.241Z,80238.89
2019-06-27T11:47:52.722Z,80266.09
2019-06-27T11:50:22.209Z,80256.15
2019-06-27T11:52:51.651Z,80207.87
2019-06-27T11:55:21.148Z,80155.53
2019-06-27T11:57:50.620Z,80148.29
2019-06-27T12:00:20.258Z,80162.85
2019-06-27T12:02:49.775Z,80180.25
2019-06-27T12:05:19.383Z,80244.91
2019-06-27T12:07:48.838Z,80323.09
2019-06-27T12:10:18.316Z,80354.95
2019-06-27T12:12:47.801Z,80405.89
2019-06-27T12:15:17.297Z,80427.73
2019-06-27T12:17:46.980Z,80445.01
2019-06-27T12:20:16.483Z,80489.64
2019-06-27T12:22:45.974Z,80500.25
2019-06-27T12:25:15.446Z,80468.91
2019-06-27T12:27:44.953Z,80465.13
2019-06-27T12:30:14.439Z,80413.22
2019-06-27T12:32:51.933Z,80309.08
2019-06-27T12:35:15.094Z,80334.44
2019-06-27T12:37:44.580Z,80311.95
2019-06-27T12:40:14.089Z,80227.34
2019-06-27T12:42:43.704Z,80251.83
2019-06-27T12:45:13.885Z,80336.97
2019-06-27T12:47:43.394Z,80378.53
2019-06-27T12:50:13.177Z,80391.77
2019-06-27T12:52:42.583Z,80488.69
2019-06-27T12:55:12.026Z,80492.60
2019-06-27T12:57:41.518Z,80481.35
2019-06-27T13:00:10.988Z,80496.16
2019-06-27T13:02:40.530Z,80482.83
2019-06-27T13:05:09.931Z,80483.80
2019-06-27T13:07:39.384Z,80520.66
2019-06-27T13:10:09.424Z,80591.53
2019-06-27T13:12:39.268Z,80592.92
2019-06-27T13:15:08.747Z,80656.03
2019-06-27T13:17:38.262Z,80733.84
2019-06-27T13:20:08.491Z,80922.20
2019-06-27T13:22:38.012Z,81102.10
2019-06-27T13:25:07.515Z,81112.31
2019-06-27T13:27:36.923Z,81071.25
2019-06-27T13:30:09.154Z,81119.70
2019-06-27T13:32:38.650Z,81200.61
2019-06-27T13:35:08.429Z,81320.22
2019-06-27T13:37:37.927Z,81446.25
2019-06-27T13:40:07.732Z,81257.37
2019-06-27T13:42:38.626Z,81115.02
2019-06-27T13:45:08.361Z,81137.16
2019-06-27T13:47:37.888Z,81266.16
2019-06-27T13:50:07.660Z,81396.23
2019-06-27T13:52:37.081Z,81403.48
2019-06-27T13:55:06.588Z,81393.95
2019-06-27T13:57:36.063Z,81297.97
2019-06-27T14:00:10.565Z,81394.75
2019-06-27T14:02:40.073Z,81346.46
2019-06-27T14:05:09.527Z,81283.31
2019-06-27T14:07:39.016Z,81188.31
2019-06-27T14:10:08.622Z,81124.36
2019-06-27T14:12:38.108Z,80794.08
2019-06-27T14:15:10.722Z,80430.20
2019-06-27T14:17:40.248Z,80127.33
2019-06-27T14:20:09.875Z,79925.31
2019-06-27T14:22:39.366Z,79758.18
2019-06-27T14:25:08.883Z,79630.25
2019-06-27T14:27:38.299Z,79532.51
2019-06-27T14:30:08.388Z,79460.65
2019-06-27T14:32:37.903Z,79405.27
2019-06-27T14:35:15.425Z,79412.57
2019-06-27T14:37:39.089Z,79430.06
2019-06-27T14:40:10.147Z,79474.52
2019-06-27T14:42:39.628Z,79516.43
2019-06-27T14:45:09.979Z,79541.84
2019-06-27T14:47:39.486Z,79547.64
2019-06-27T14:50:09.795Z,79555.06
2019-06-27T14:52:39.129Z,79601.36
2019-06-27T14:55:08.569Z,79723.48
2019-06-27T14:57:38.198Z,79752.92
2019-06-27T15:00:08.618Z,79747.59
2019-06-27T15:02:38.142Z,79757.63
2019-06-27T15:05:07.932Z,79711.45
2019-06-27T15:07:37.537Z,79636.04
2019-06-27T15:10:09.883Z,79595.92
2019-06-27T15:12:55.468Z,79570.82
2019-06-27T15:15:11.358Z,79525.27
2019-06-27T15:17:40.869Z,79502.13
2019-06-27T15:20:10.434Z,79470.36
2019-06-27T15:22:39.915Z,79422.05
2019-06-27T15:25:10.317Z,79411.09
2019-06-27T15:27:39.794Z,79386.86
2019-06-27T15:30:09.192Z,79336.73
2019-06-27T15:32:38.698Z,79314.37
2019-06-27T15:35:08.185Z,79286.33
2019-06-27T15:37:37.664Z,79230.27
2019-06-27T15:40:20.769Z,79133.70
2019-06-27T15:43:04.908Z,79002.79
2019-06-27T15:45:46.938Z,78935.22
2019-06-27T15:48:28.841Z,78891.42
2019-06-27T15:51:09.557Z,78891.13
2019-06-27T15:53:49.747Z,78907.81
2019-06-27T15:56:32.733Z,78922.52
2019-06-27T15:59:16.964Z,78967.25
2019-06-27T16:01:59.289Z,79087.17
2019-06-27T16:04:41.877Z,79178.44
2019-06-27T16:07:23.772Z,79138.50
2019-06-27T16:10:06.348Z,79139.89
2019-06-27T16:12:47.330Z,79099.72
2019-06-27T16:15:26.625Z,79045.63
2019-06-27T16:18:11.966Z,79091.88
2019-06-27T16:20:54.599Z,79128.87
2019-06-27T16:23:28.131Z,79152.97
2019-06-27T16:26:02.877Z,79136.62
2019-06-27T16:28:47.002Z,79120.86
2019-06-27T16:31:26.830Z,79114.11
2019-06-27T16:34:12.225Z,79100.70
2019-06-27T16:36:47.876Z,79063.50
2019-06-27T16:39:31.428Z,79055.78
2019-06-27T16:42:14.055Z,79049.89
2019-06-27T16:44:58.627Z,79000.23
2019-06-27T16:47:39.716Z,78909.45
2019-06-27T16:50:20.901Z,78842.17
2019-06-27T16:53:02.099Z,78805.91
2019-06-27T16:55:40.842Z,78802.03
2019-06-27T16:58:25.246Z,78782.66
2019-06-27T17:01:02.564Z,78763.59
2019-06-27T17:03:42.691Z,78756.99
2019-06-27T17:06:40.451Z,78736.73
2019-06-27T17:09:07.894Z,78726.50
2019-06-27T17:11:37.408Z,78693.48
2019-06-27T17:14:06.873Z,78686.49
2019-06-27T17:16:36.346Z,78695.49
2019-06-27T17:19:05.853Z,78704.67
2019-06-27T17:21:35.324Z,78698.03
2019-06-27T17:24:04.807Z,78693.06
2019-06-27T17:26:34.303Z,78694.61
2019-06-27T17:29:03.813Z,78697.83
2019-06-27T17:31:33.408Z,78692.26
2019-06-27T17:34:02.900Z,78676.34
2019-06-27T17:36:32.308Z,78656.70
2019-06-27T17:39:01.888Z,78651.30
2019-06-27T17:41:31.493Z,78655.59
2019-06-27T17:44:00.969Z,78660.64
2019-06-27T17:46:30.381Z,78664.02
2019-06-27T17:48:59.878Z,78667.94
2019-06-27T17:51:29.351Z,78679.66
2019-06-27T17:53:58.858Z,78683.91
2019-06-27T17:56:28.361Z,78677.27
2019-06-27T17:58:57.836Z,78669.08
2019-06-27T18:01:27.315Z,78672.91
2019-06-27T18:03:56.823Z,78662.04
2019-06-27T18:06:26.269Z,78654.45
2019-06-27T18:08:55.911Z,78652.86
2019-06-27T18:11:25.395Z,78655.28
2019-06-27T18:13:55.017Z,78648.48
2019-06-27T18:16:24.511Z,78637.98
2019-06-27T18:18:54.005Z,78638.20
2019-06-27T18:21:23.523Z,78629.75
2019-06-27T18:23:53.014Z,78620.97
2019-06-27T18:26:22.499Z,78611.91
2019-06-27T18:28:51.936Z,78601.58
2019-06-27T18:31:21.416Z,78591.06
2019-06-27T18:33:50.907Z,78584.43
2019-06-27T18:36:20.431Z,78572.68
2019-06-27T18:38:49.951Z,78567.47
2019-06-27T18:41:19.476Z,78564.07
2019-06-27T18:43:48.926Z,78555.02
2019-06-27T18:46:18.335Z,78532.08
2019-06-27T18:48:47.825Z,78516.77
2019-06-27T18:51:17.317Z,78509.53
2019-06-27T18:53:46.814Z,78509.61
2019-06-27T18:56:16.292Z,78507.92
2019-06-27T18:58:45.744Z,78497.94
2019-06-27T19:01:15.161Z,78493.08
2019-06-27T19:03:44.660Z,78482.14
2019-06-27T19:06:14.162Z,78474.55
2019-06-27T19:08:43.648Z,78465.45
2019-06-27T19:11:13.140Z,78460.48
2019-06-27T19:13:42.663Z,78457.53
2019-06-27T19:16:12.165Z,78457.98
2019-06-27T19:18:44.455Z,78444.79
2019-06-27T19:21:19.811Z,78436.28
2019-06-27T19:24:02.466Z,78432.97
2019-06-27T19:26:31.986Z,78432.80
2019-06-27T19:29:01.475Z,78424.13
2019-06-27T19:31:30.954Z,78419.70
2019-06-27T19:34:00.557Z,78421.88
2019-06-27T19:36:30.028Z,78408.66
2019-06-27T19:38:59.623Z,78392.53
2019-06-27T19:41:29.156Z,78381.72
2019-06-27T19:43:58.629Z,78379.23
2019-06-27T19:46:28.102Z,78381.94
2019-06-27T19:48:57.615Z,78376.11
2019-06-27T19:51:27.086Z,78377.61
2019-06-27T19:53:58.071Z,78387.02
2019-06-27T19:56:27.889Z,78384.81
2019-06-27T19:58:57.512Z,78381.44
2019-06-27T20:01:26.998Z,78378.56
2019-06-27T20:03:56.510Z,78372.92
2019-06-27T20:06:25.996Z,78375.09
2019-06-27T20:08:55.556Z,78376.52
2019-06-27T20:11:25.148Z,78364.48
2019-06-27T20:13:54.639Z,78352.82
2019-06-27T20:16:24.139Z,78340.72
2019-06-27T20:18:53.619Z,78332.09
2019-06-27T20:21:23.101Z,78331.93
2019-06-27T20:23:52.604Z,78330.86
2019-06-27T20:26:22.084Z,78331.88
2019-06-27T20:28:51.556Z,78330.13
2019-06-27T20:31:21.037Z,78327.09
2019-06-27T20:33:50.583Z,78320.84
2019-06-27T20:36:20.064Z,78316.66
2019-06-27T20:38:49.508Z,78305.48
2019-06-27T20:41:18.982Z,78296.09
2019-06-27T20:43:48.452Z,78281.48
2019-06-27T20:46:17.959Z,78279.92
2019-06-27T20:48:47.459Z,78275.62
2019-06-27T20:51:16.956Z,78269.94
2019-06-27T20:53:46.493Z,78269.77
2019-06-27T20:56:15.994Z,78271.20
2019-06-27T20:58:45.462Z,78272.44
2019-06-27T21:01:14.985Z,78272.94
2019-06-27T21:03:44.481Z,78271.98
2019-06-27T21:06:14.026Z,78265.56
2019-06-27T21:08:51.301Z,78260.44
2019-06-27T21:11:14.833Z,78253.14
2019-06-27T21:13:44.316Z,78244.12
2019-06-27T21:16:13.845Z,78234.97
2019-06-27T21:18:43.372Z,78220.84
2019-06-27T21:21:12.849Z,78215.66
2019-06-27T21:23:42.359Z,78209.20
2019-06-27T21:26:11.963Z,78203.36
2019-06-27T21:28:41.449Z,78197.02
2019-06-27T21:31:10.944Z,78194.57
2019-06-27T21:33:40.445Z,78194.83
2019-06-27T21:36:10.030Z,78200.66
2019-06-27T21:38:39.538Z,78189.28
2019-06-27T21:41:10.913Z,78180.66
2019-06-27T21:43:40.311Z,78166.81
2019-06-27T21:46:09.858Z,78162.44
2019-06-27T21:48:39.371Z,78162.70
2019-06-27T21:51:08.868Z,78154.11
2019-06-27T21:53:38.359Z,78147.15
2019-06-27T21:56:07.838Z,78140.36
2019-06-27T21:58:37.309Z,78136.87
2019-06-27T22:01:07.016Z,78130.64
2019-06-27T22:03:36.497Z,78128.98
2019-06-27T22:06:05.984Z,78129.22
2019-06-27T22:08:35.503Z,78124.09
2019-06-27T22:11:04.933Z,78118.56
2019-06-27T22:13:34.407Z,78115.58
2019-06-27T22:16:03.953Z,78116.14
2019-06-27T22:18:33.494Z,78111.39
2019-06-27T22:21:02.918Z,78099.78
2019-06-27T22:23:32.590Z,78103.70
2019-06-27T22:26:02.081Z,78104.94
2019-06-27T22:28:31.564Z,78102.54
2019-06-27T22:31:01.069Z,78099.34
2019-06-27T22:33:30.541Z,78087.70
2019-06-27T22:35:59.918Z,78076.16
2019-06-27T22:38:47.364Z,78077.42
2019-06-27T22:41:34.698Z,78074.67
2019-06-27T22:44:22.090Z,78072.98
2019-06-27T22:47:09.535Z,78067.02
2019-06-27T22:49:38.539Z,78061.12
2019-06-27T22:52:15.715Z,78059.77
2019-06-27T22:54:46.798Z,78060.13
2019-06-27T22:57:16.283Z,78060.00
2019-06-27T22:59:45.981Z,78056.47
2019-06-27T23:02:15.385Z,78056.52
2019-06-27T23:04:44.791Z,78055.80
2019-06-27T23:07:14.321Z,78057.75
2019-06-27T23:09:56.614Z,78050.61
2019-06-27T23:12:15.007Z,78047.64
2019-06-27T23:14:44.554Z,78048.63
2019-06-27T23:17:14.025Z,78046.05
2019-06-27T23:19:43.519Z,78034.72
2019-06-27T23:22:13.027Z,78023.86
2019-06-27T23:24:42.411Z,78015.03
2019-06-27T23:27:12.271Z,78004.25
2019-06-27T23:29:41.777Z,77999.58
2019-06-27T23:32:11.254Z,77986.29
2019-06-27T23:34:40.733Z,77974.47
2019-06-27T23:37:10.255Z,77969.33
2019-06-27T23:39:39.823Z,77965.86
2019-06-27T23:42:09.317Z,77966.64
2019-06-27T23:44:38.821Z,77966.73
2019-06-27T23:47:08.296Z,77963.66
2019-06-27T23:49:37.710Z,77953.72
2019-06-27T23:52:07.211Z,77948.07
2019-06-27T23:54:36.630Z,77950.09
2019-06-27T23:57:06.105Z,77956.92
2019-06-27T23:59:35.621Z,77950.68
